Time;durP1;ratioP1;P1;durP2;ratioP2;P2;SDS_P1;SDS_P2;PMS_P1;PMS_P2;Temp;Humidity;BMP_temperature;BMP_pressure;BME280_temperature;BME280_humidity;BME280_pressure;Samples;Min_cycle;Max_cycle;Signal;HPM_P1;HPM_P2
2022/01/01 00:00:01;;;;;;;56.05;31.42;;;12.30;99.90;;;;;;5030054;28;20084;-93
2022/01/01 00:02:27;;;;;;;49.22;29.83;;;12.30;99.90;;;;;;5029775;28;20079;-96
2022/01/01 00:04:52;;;;;;;49.92;28.20;;;12.30;99.90;;;;;;5030364;28;20037;-94
2022/01/01 00:07:18;;;;;;;48.40;29.13;;;12.30;99.90;;;;;;5047846;28;20089;-91
2022/01/01 00:09:44;;;;;;;50.97;30.50;;;12.30;99.90;;;;;;5073571;28;20039;-93
2022/01/01 00:12:11;;;;;;;49.85;31.63;;;12.40;99.90;;;;;;5088969;28;20388;-89
2022/01/01 00:14:37;;;;;;;51.65;31.08;;;12.40;99.90;;;;;;5072054;28;20054;-85
2022/01/01 00:17:04;;;;;;;48.25;30.75;;;12.30;99.90;;;;;;5088919;28;20036;-86
2022/01/01 00:19:31;;;;;;;51.58;32.67;;;12.30;99.90;;;;;;5107937;28;20411;-84
2022/01/01 00:21:57;;;;;;;57.72;35.97;;;12.40;99.90;;;;;;5091858;28;20032;-85
2022/01/01 00:24:23;;;;;;;54.85;36.15;;;12.40;99.90;;;;;;5092186;28;20060;-85
2022/01/01 00:26:49;;;;;;;56.30;38.75;;;12.40;99.90;;;;;;5108716;28;20031;-84
2022/01/01 00:29:14;;;;;;;55.47;36.03;;;12.50;99.90;;;;;;5091008;28;20089;-84
2022/01/01 00:31:40;;;;;;;55.88;35.25;;;12.40;99.90;;;;;;5091570;28;20024;-83
2022/01/01 00:34:06;;;;;;;53.63;32.72;;;12.40;99.90;;;;;;5091878;28;20073;-84
2022/01/01 00:36:32;;;;;;;55.40;33.47;;;12.40;99.90;;;;;;5091714;28;20463;-84
2022/01/01 00:38:58;;;;;;;52.40;34.47;;;12.40;99.90;;;;;;5084457;28;20054;-85
2022/01/01 00:41:23;;;;;;;47.88;29.80;;;12.40;99.90;;;;;;5088112;28;20040;-84
2022/01/01 00:43:49;;;;;;;45.17;29.35;;;12.40;99.90;;;;;;5071417;28;20117;-85
2022/01/01 00:46:15;;;;;;;53.15;31.25;;;12.40;99.90;;;;;;5071663;28;20043;-84
2022/01/01 00:48:40;;;;;;;45.40;29.80;;;12.40;99.90;;;;;;5071331;28;20040;-85
2022/01/01 00:51:06;;;;;;;47.47;29.60;;;12.40;99.90;;;;;;5071667;28;20032;-85
2022/01/01 00:53:32;;;;;;;49.47;30.10;;;12.40;99.90;;;;;;5070976;28;20032;-84
2022/01/01 00:55:58;;;;;;;47.33;26.52;;;12.30;99.90;;;;;;5071562;28;20024;-85
2022/01/01 00:58:24;;;;;;;46.00;28.75;;;12.30;99.90;;;;;;5071085;28;20055;-84
2022/01/01 01:00:50;;;;;;;49.20;28.23;;;12.40;99.90;;;;;;5071333;28;20032;-85
2022/01/01 01:03:17;;;;;;;47.03;29.33;;;12.40;99.90;;;;;;5087929;28;20028;-84
2022/01/01 01:05:45;;;;;;;50.55;28.10;;;12.40;99.90;;;;;;5088080;28;20028;-85
2022/01/01 01:08:12;;;;;;;46.42;27.80;;;12.40;99.90;;;;;;5071069;28;20044;-85
2022/01/01 01:10:39;;;;;;;41.22;23.83;;;12.40;99.90;;;;;;5071144;28;20028;-84
2022/01/01 01:13:06;;;;;;;51.15;28.58;;;12.40;99.90;;;;;;5070935;28;20373;-84
2022/01/01 01:15:32;;;;;;;47.80;28.48;;;12.40;99.90;;;;;;5071134;28;20059;-84
2022/01/01 01:17:58;;;;;;;47.33;27.05;;;12.40;99.90;;;;;;5070908;28;20107;-84
2022/01/01 01:20:26;;;;;;;32.88;20.60;;;12.40;99.90;;;;;;5071138;28;20032;-84
2022/01/01 01:22:52;;;;;;;44.85;24.88;;;12.30;99.90;;;;;;5071081;28;20476;-84
2022/01/01 01:25:17;;;;;;;39.63;24.08;;;12.30;99.90;;;;;;5088311;28;20040;-88
2022/01/01 01:28:08;;;;;;;35.90;22.27;;;12.30;99.90;;;;;;5071210;28;20043;-86
2022/01/01 01:30:35;;;;;;;44.33;25.67;;;12.30;99.90;;;;;;5010601;28;20046;-85
2022/01/01 01:33:00;;;;;;;43.92;24.83;;;12.30;99.90;;;;;;5043579;28;20279;-83
2022/01/01 01:35:26;;;;;;;46.33;26.98;;;12.30;99.90;;;;;;5043877;28;20044;-86
2022/01/01 01:37:52;;;;;;;47.42;27.02;;;12.30;99.90;;;;;;5043863;28;20025;-84
2022/01/01 01:40:19;;;;;;;47.83;28.48;;;12.30;99.90;;;;;;5043718;28;20034;-84
2022/01/01 01:42:45;;;;;;;40.47;24.65;;;12.30;99.90;;;;;;5047323;28;20044;-85
2022/01/01 01:45:16;;;;;;;52.95;30.02;;;12.30;99.90;;;;;;5047915;28;20040;-87
2022/01/01 01:47:43;;;;;;;42.42;26.42;;;12.30;99.90;;;;;;5047510;28;20173;-85
2022/01/01 01:50:12;;;;;;;48.28;28.05;;;12.30;99.90;;;;;;5047624;28;20041;-84
2022/01/01 01:52:39;;;;;;;44.75;24.67;;;12.30;99.90;;;;;;5031033;28;20037;-84
2022/01/01 01:55:07;;;;;;;49.40;27.27;;;12.30;99.90;;;;;;5047768;28;20048;-85
2022/01/01 01:57:36;;;;;;;45.92;24.60;;;12.30;99.90;;;;;;5047347;28;20041;-84
2022/01/01 02:02:55;;;;;;;36.95;21.10;;;12.20;99.90;;;;;;5047319;28;20033;-84
2022/01/01 02:05:21;;;;;;;34.17;21.42;;;12.20;99.90;;;;;;5047559;28;20033;-84
2022/01/01 02:07:49;;;;;;;31.92;20.48;;;12.20;99.90;;;;;;5084218;28;20119;-84
2022/01/01 02:10:15;;;;;;;39.50;22.92;;;12.10;99.90;;;;;;5109977;28;20032;-86
2022/01/01 02:12:42;;;;;;;37.67;22.08;;;12.10;99.90;;;;;;5075092;28;20051;-84
2022/01/01 02:15:14;;;;;;;38.22;22.60;;;12.10;99.90;;;;;;5074973;28;20177;-85
2022/01/01 02:17:40;;;;;;;41.03;24.25;;;12.10;99.90;;;;;;5074648;28;20036;-84
2022/01/01 02:20:12;;;;;;;37.78;21.98;;;12.10;99.90;;;;;;5091754;28;20061;-84
2022/01/01 02:22:47;;;;;;;43.40;25.58;;;12.10;99.90;;;;;;5074640;28;20035;-84
2022/01/01 02:25:15;;;;;;;47.00;26.63;;;12.10;99.90;;;;;;5091218;28;20028;-85
2022/01/01 02:28:21;;;;;;;47.13;27.88;;;12.10;99.90;;;;;;5091258;28;20061;-83
2022/01/01 02:30:49;;;;;;;49.65;30.25;;;12.10;99.90;;;;;;5010402;28;20076;-84
2022/01/01 02:33:16;;;;;;;52.58;31.17;;;12.10;99.90;;;;;;4994219;28;20120;-82
2022/01/01 02:35:44;;;;;;;52.55;30.63;;;12.10;99.90;;;;;;4994177;28;20034;-84
2022/01/01 02:38:10;;;;;;;46.97;28.80;;;12.10;99.90;;;;;;5010298;28;20038;-85
2022/01/01 02:40:38;;;;;;;56.38;32.38;;;12.20;99.90;;;;;;5010492;28;20030;-85
2022/01/01 02:43:03;;;;;;;56.13;29.30;;;12.20;99.90;;;;;;5026918;28;20069;-84
2022/01/01 02:45:30;;;;;;;64.25;36.60;;;12.20;99.90;;;;;;5010720;28;20040;-84
2022/01/01 02:47:57;;;;;;;59.28;34.60;;;12.20;99.90;;;;;;5010381;28;20137;-87
2022/01/01 02:50:23;;;;;;;51.63;31.42;;;12.20;99.90;;;;;;5010560;28;20036;-86
2022/01/01 02:52:49;;;;;;;46.80;28.23;;;12.10;99.90;;;;;;5009959;28;20033;-85
2022/01/01 02:55:15;;;;;;;59.65;35.97;;;12.10;99.90;;;;;;5010355;28;20041;-85
2022/01/01 02:57:40;;;;;;;53.00;32.08;;;12.20;99.90;;;;;;5010219;28;20029;-87
2022/01/01 03:00:06;;;;;;;48.15;29.00;;;12.20;99.90;;;;;;5010034;28;20037;-85
2022/01/01 03:02:33;;;;;;;58.50;32.10;;;12.10;99.90;;;;;;5009785;28;20042;-85
2022/01/01 03:04:58;;;;;;;66.05;35.60;;;12.20;99.90;;;;;;5009870;28;20034;-84
2022/01/01 03:07:25;;;;;;;55.17;32.58;;;12.20;99.90;;;;;;5038308;28;20040;-86
2022/01/01 03:09:52;;;;;;;47.78;29.05;;;12.20;99.90;;;;;;5090418;28;20039;-84
2022/01/01 03:12:17;;;;;;;52.35;32.00;;;12.20;99.90;;;;;;5073858;28;20084;-85
2022/01/01 03:14:44;;;;;;;48.17;27.50;;;12.20;99.90;;;;;;5073622;28;20575;-85
2022/01/01 03:17:11;;;;;;;60.70;33.20;;;12.20;99.90;;;;;;5073759;28;20028;-85
2022/01/01 03:19:38;;;;;;;54.15;32.58;;;12.20;99.90;;;;;;5073561;28;20047;-84
2022/01/01 03:22:04;;;;;;;57.03;30.52;;;12.20;99.90;;;;;;5073333;28;20032;-82
2022/01/01 03:24:30;;;;;;;47.55;25.30;;;12.10;99.90;;;;;;5073376;28;20032;-87
2022/01/01 03:26:57;;;;;;;50.35;27.58;;;12.10;99.90;;;;;;5073385;28;20039;-84
2022/01/01 03:29:22;;;;;;;43.53;24.95;;;12.00;99.90;;;;;;5070504;23;20053;-83
2022/01/01 03:31:48;;;;;;;39.78;24.02;;;12.00;99.90;;;;;;5049776;28;20033;-85
2022/01/01 03:34:14;;;;;;;37.10;23.13;;;12.00;99.90;;;;;;5050674;28;20099;-85
2022/01/01 03:36:39;;;;;;;33.28;20.13;;;11.90;99.90;;;;;;5049311;28;20033;-84
2022/01/01 03:39:06;;;;;;;35.17;19.63;;;11.90;99.90;;;;;;5049290;28;20044;-83
2022/01/01 03:42:00;;;;;;;38.22;21.95;;;11.90;99.90;;;;;;5033920;28;20555;-84
2022/01/01 03:44:25;;;;;;;39.63;20.02;;;11.90;99.90;;;;;;5049654;28;20472;-84
2022/01/01 03:46:55;;;;;;;34.13;18.10;;;11.90;99.90;;;;;;5049891;28;20035;-85
2022/01/01 03:49:21;;;;;;;31.77;18.83;;;11.90;99.90;;;;;;5049885;28;20473;-85
2022/01/01 03:51:46;;;;;;;30.90;18.63;;;11.90;99.90;;;;;;5049735;28;20029;-82
2022/01/01 03:54:12;;;;;;;36.75;17.13;;;11.90;99.90;;;;;;5033109;28;20067;-84
2022/01/01 03:56:38;;;;;;;34.38;16.13;;;11.90;99.90;;;;;;5049696;28;20029;-82
2022/01/01 03:59:04;;;;;;;35.28;15.93;;;11.90;99.90;;;;;;5049351;28;20068;-85
2022/01/01 04:01:29;;;;;;;31.27;16.35;;;11.80;99.90;;;;;;5032724;28;20028;-84
2022/01/01 04:03:55;;;;;;;30.45;16.45;;;11.80;99.90;;;;;;5065100;28;20077;-83
2022/01/01 04:06:20;;;;;;;25.58;14.35;;;11.80;99.90;;;;;;5049040;28;20028;-84
2022/01/01 04:08:46;;;;;;;27.20;15.38;;;11.90;99.90;;;;;;5049137;28;20040;-84
2022/01/01 04:11:11;;;;;;;29.42;15.38;;;11.90;99.90;;;;;;5049109;28;20029;-84
2022/01/01 04:13:37;;;;;;;31.42;15.35;;;11.90;99.90;;;;;;5048783;28;20037;-85
2022/01/01 04:16:03;;;;;;;35.58;15.27;;;11.80;99.90;;;;;;5048882;28;20029;-83
2022/01/01 04:18:38;;;;;;;27.95;14.35;;;11.90;99.90;;;;;;5032380;28;20100;-83
2022/01/01 04:21:09;;;;;;;23.48;9.93;;;11.90;99.90;;;;;;5048763;28;20458;-87
2022/01/01 04:23:35;;;;;;;23.92;11.85;;;11.90;99.90;;;;;;5048770;28;20052;-85
2022/01/01 04:26:01;;;;;;;25.27;11.43;;;11.90;99.90;;;;;;5032289;28;20033;-84
2022/01/01 04:28:27;;;;;;;19.50;10.18;;;11.90;99.90;;;;;;5048311;28;20041;-88
2022/01/01 04:30:53;;;;;;;18.95;10.32;;;11.90;99.90;;;;;;5065011;28;20052;-84
2022/01/01 04:33:18;;;;;;;18.42;9.02;;;11.90;99.90;;;;;;5065247;28;20032;-86
2022/01/01 04:35:44;;;;;;;22.83;9.27;;;11.90;99.90;;;;;;5032271;28;20033;-88
2022/01/01 04:38:22;;;;;;;25.00;8.90;;;11.90;99.90;;;;;;5032424;28;20036;-85
2022/01/01 04:40:48;;;;;;;16.15;7.32;;;11.90;99.90;;;;;;5032123;28;20040;-84
2022/01/01 04:43:13;;;;;;;12.70;8.18;;;11.90;99.90;;;;;;5048691;28;20040;-85
2022/01/01 04:45:39;;;;;;;20.58;8.30;;;11.90;99.90;;;;;;5032113;28;20083;-84
2022/01/01 04:48:04;;;;;;;18.40;7.55;;;12.00;99.90;;;;;;5031982;28;20090;-86
2022/01/01 04:50:31;;;;;;;12.82;7.30;;;11.90;99.90;;;;;;5031938;28;20059;-85
2022/01/01 04:52:57;;;;;;;14.23;7.13;;;12.00;99.90;;;;;;5031923;28;20116;-84
2022/01/01 04:55:23;;;;;;;13.45;7.05;;;11.90;99.90;;;;;;5031944;28;20055;-85
2022/01/01 04:57:49;;;;;;;16.90;6.68;;;11.90;99.90;;;;;;5031732;28;20105;-86
2022/01/01 05:00:15;;;;;;;15.25;6.75;;;11.90;99.90;;;;;;5031899;28;20036;-85
2022/01/01 05:02:40;;;;;;;16.55;6.80;;;11.90;99.90;;;;;;5031728;28;20143;-88
2022/01/01 05:05:06;;;;;;;13.70;6.75;;;11.90;99.90;;;;;;5031918;28;20036;-85
2022/01/01 05:07:32;;;;;;;15.25;6.75;;;11.90;99.90;;;;;;5031724;28;20029;-84
2022/01/01 05:09:59;;;;;;;15.93;6.93;;;11.90;99.90;;;;;;5048404;28;20037;-85
2022/01/01 05:12:25;;;;;;;15.00;6.70;;;11.90;99.90;;;;;;5048067;28;20028;-84
2022/01/01 05:14:50;;;;;;;16.45;7.10;;;11.90;99.90;;;;;;5031310;28;20043;-84
2022/01/01 05:17:17;;;;;;;11.85;5.53;;;11.90;99.90;;;;;;5031679;28;20033;-85
2022/01/01 05:19:43;;;;;;;16.67;7.13;;;11.90;99.90;;;;;;5064677;28;20032;-87
2022/01/01 05:22:09;;;;;;;12.68;5.75;;;11.90;99.90;;;;;;5031325;28;20124;-84
2022/01/01 05:24:34;;;;;;;16.80;6.68;;;11.90;99.90;;;;;;5031795;28;20104;-87
2022/01/01 05:27:00;;;;;;;14.77;6.70;;;11.90;99.90;;;;;;5048088;28;20025;-86
2022/01/01 05:29:26;;;;;;;14.68;6.05;;;12.00;99.90;;;;;;5030915;28;20047;-85
2022/01/01 05:31:51;;;;;;;12.65;6.45;;;12.00;99.90;;;;;;5047618;28;20088;-85
2022/01/01 05:34:17;;;;;;;15.57;6.55;;;12.00;99.90;;;;;;5047654;28;20037;-86
2022/01/01 05:36:43;;;;;;;18.38;6.63;;;12.00;99.90;;;;;;5047914;28;20116;-87
2022/01/01 05:39:08;;;;;;;13.38;6.50;;;12.00;99.90;;;;;;5031194;28;20036;-84
2022/01/01 05:41:34;;;;;;;12.20;5.93;;;11.90;99.90;;;;;;5030970;28;20029;-85
2022/01/01 05:44:00;;;;;;;10.57;5.30;;;12.00;99.90;;;;;;5031148;28;20093;-85
2022/01/01 05:46:26;;;;;;;9.48;5.47;;;11.90;99.90;;;;;;5030948;28;20032;-84
2022/01/01 05:48:51;;;;;;;15.50;6.40;;;11.90;99.90;;;;;;5031383;28;20041;-84
2022/01/01 05:51:17;;;;;;;12.40;5.60;;;11.90;99.90;;;;;;5031061;28;20033;-85
2022/01/01 05:53:42;;;;;;;13.82;6.10;;;11.90;99.90;;;;;;5031092;28;20044;-84
2022/01/01 05:56:08;;;;;;;14.30;6.13;;;11.90;99.90;;;;;;5031029;28;20040;-86
2022/01/01 05:58:34;;;;;;;10.75;5.88;;;11.90;99.90;;;;;;5031129;28;20056;-86
2022/01/01 06:00:59;;;;;;;12.05;5.80;;;11.90;99.90;;;;;;5030988;28;20053;-86
2022/01/01 06:03:25;;;;;;;11.82;5.13;;;11.90;99.90;;;;;;5030756;28;20025;-85
2022/01/01 06:05:52;;;;;;;12.77;5.28;;;11.90;99.90;;;;;;5047552;28;20056;-85
2022/01/01 06:08:18;;;;;;;15.13;5.22;;;11.90;99.90;;;;;;5030929;28;20044;-84
2022/01/01 06:10:44;;;;;;;13.73;5.05;;;12.00;99.90;;;;;;5047414;28;20025;-84
2022/01/01 06:13:10;;;;;;;8.77;4.22;;;11.90;99.90;;;;;;5047256;28;20040;-83
2022/01/01 06:15:36;;;;;;;14.65;5.68;;;11.90;99.90;;;;;;5047496;28;20040;-84
2022/01/01 06:18:02;;;;;;;15.23;7.03;;;11.90;99.90;;;;;;5047254;28;20024;-84
2022/01/01 06:20:27;;;;;;;15.40;7.28;;;11.90;99.90;;;;;;5047603;28;20465;-86
2022/01/01 06:22:53;;;;;;;18.08;8.45;;;11.90;99.90;;;;;;5030596;28;20052;-85
2022/01/01 06:25:19;;;;;;;15.75;7.65;;;11.90;99.90;;;;;;5030908;28;20029;-85
2022/01/01 06:28:04;;;;;;;14.77;8.45;;;11.90;99.90;;;;;;5032274;28;20039;-84
2022/01/01 06:30:37;;;;;;;13.20;6.10;;;11.90;99.90;;;;;;5049692;23;20045;-85
2022/01/01 06:33:16;;;;;;;14.55;6.30;;;11.90;99.90;;;;;;5068843;28;20029;-83
2022/01/01 06:35:43;;;;;;;12.67;4.87;;;11.90;99.90;;;;;;5068086;28;20043;-85
2022/01/01 06:38:10;;;;;;;11.55;4.25;;;11.90;99.90;;;;;;5067636;28;20029;-84
2022/01/01 06:40:39;;;;;;;11.57;4.15;;;11.90;99.90;;;;;;5067868;28;20040;-85
2022/01/01 06:43:06;;;;;;;10.13;4.25;;;11.80;99.90;;;;;;5042734;28;20029;-86
2022/01/01 06:45:32;;;;;;;9.82;3.65;;;11.90;99.90;;;;;;5050918;28;20033;-82
2022/01/01 06:47:57;;;;;;;11.40;4.35;;;11.80;99.90;;;;;;5050776;28;20394;-85
2022/01/01 06:50:23;;;;;;;11.95;4.60;;;11.80;99.90;;;;;;5067483;28;20033;-84
2022/01/01 06:52:48;;;;;;;13.27;5.22;;;11.80;99.90;;;;;;5050751;28;20032;-84
2022/01/01 06:55:14;;;;;;;11.20;5.18;;;11.80;99.90;;;;;;5067522;28;20094;-83
2022/01/01 06:57:41;;;;;;;7.90;3.95;;;11.80;99.90;;;;;;5050563;28;20029;-84
2022/01/01 07:00:07;;;;;;;8.68;4.88;;;11.80;99.90;;;;;;5050652;28;20033;-83
2022/01/01 07:02:41;;;;;;;11.27;5.30;;;11.80;99.90;;;;;;5050026;28;20079;-83
2022/01/01 07:05:08;;;;;;;9.10;4.30;;;11.80;99.90;;;;;;5050382;28;20037;-83
2022/01/01 07:07:35;;;;;;;8.23;4.10;;;11.80;99.90;;;;;;5050028;28;20064;-85
2022/01/01 07:10:02;;;;;;;10.93;4.00;;;11.80;99.90;;;;;;5066917;28;20044;-85
2022/01/01 07:12:27;;;;;;;12.43;4.75;;;11.70;99.90;;;;;;5050043;28;20028;-84
2022/01/01 07:14:53;;;;;;;11.75;4.57;;;11.70;99.90;;;;;;5050277;28;20032;-84
2022/01/01 07:17:19;;;;;;;12.32;4.88;;;11.60;99.90;;;;;;5050075;28;20056;-85
2022/01/01 07:19:44;;;;;;;10.63;4.07;;;11.50;99.90;;;;;;5050040;28;20029;-87
2022/01/01 07:22:10;;;;;;;12.18;4.28;;;11.40;99.90;;;;;;5049985;28;20072;-84
2022/01/01 07:24:35;;;;;;;7.38;3.53;;;11.40;99.90;;;;;;5050163;28;20087;-85
2022/01/01 07:27:01;;;;;;;12.70;3.75;;;11.30;99.90;;;;;;5050090;28;20097;-84
2022/01/01 07:29:26;;;;;;;9.05;3.80;;;11.30;99.90;;;;;;5046267;28;20520;-85
2022/01/01 07:31:53;;;;;;;11.13;3.38;;;11.30;99.90;;;;;;5064679;28;20029;-87
2022/01/01 07:34:22;;;;;;;12.15;3.95;;;11.20;99.90;;;;;;5049380;28;20033;-84
2022/01/01 07:36:48;;;;;;;8.30;3.60;;;11.20;99.90;;;;;;5049759;28;20068;-88
2022/01/01 07:39:14;;;;;;;9.35;3.70;;;11.10;99.90;;;;;;5064912;28;20033;-85
2022/01/01 07:41:40;;;;;;;11.65;4.25;;;11.10;99.90;;;;;;5066246;28;20040;-86
2022/01/01 07:44:06;;;;;;;10.27;4.00;;;11.10;99.90;;;;;;5066123;28;20055;-87
2022/01/01 07:46:32;;;;;;;7.45;3.30;;;11.00;99.90;;;;;;5066100;28;20029;-85
2022/01/01 07:48:58;;;;;;;9.48;3.80;;;11.10;99.90;;;;;;5048739;28;20045;-85
2022/01/01 07:51:24;;;;;;;10.07;3.45;;;11.20;99.90;;;;;;5049449;28;20025;-87
2022/01/01 07:53:49;;;;;;;7.43;3.60;;;11.30;99.90;;;;;;5066265;28;20037;-88
2022/01/01 07:56:15;;;;;;;9.23;3.30;;;11.30;99.90;;;;;;5067271;28;20025;-85
2022/01/01 07:58:40;;;;;;;10.20;3.63;;;11.30;99.90;;;;;;5046282;28;20029;-84
2022/01/01 08:01:06;;;;;;;10.73;4.15;;;11.30;99.90;;;;;;5048592;28;20035;-85
2022/01/01 08:03:32;;;;;;;11.77;3.95;;;11.30;99.90;;;;;;5048192;28;20044;-85
2022/01/01 08:05:58;;;;;;;8.25;3.35;;;11.30;99.90;;;;;;5048452;28;20063;-84
2022/01/01 08:08:23;;;;;;;12.50;3.78;;;11.20;99.90;;;;;;5048406;28;20032;-85
2022/01/01 08:10:49;;;;;;;8.57;3.42;;;11.10;99.90;;;;;;5048380;28;20541;-88
2022/01/01 08:13:23;;;;;;;6.93;2.67;;;11.10;99.90;;;;;;5032730;28;20063;-91
2022/01/01 08:15:49;;;;;;;6.40;3.20;;;11.10;99.90;;;;;;5048568;28;20047;-90
2022/01/01 08:18:15;;;;;;;9.85;2.85;;;11.10;99.90;;;;;;5048254;28;20040;-85
2022/01/01 08:20:41;;;;;;;7.45;2.95;;;11.10;99.90;;;;;;5048299;28;20028;-88
2022/01/01 08:23:07;;;;;;;13.73;3.78;;;11.10;99.90;;;;;;5048109;28;20032;-87
2022/01/01 08:25:33;;;;;;;8.48;3.00;;;11.20;99.90;;;;;;5048182;28;20047;-90
2022/01/01 08:28:18;;;;;;;12.25;3.30;;;11.10;99.90;;;;;;5065626;28;20024;-87
2022/01/01 08:30:44;;;;;;;6.45;2.60;;;11.10;99.90;;;;;;4952925;28;20117;-89
2022/01/01 08:33:09;;;;;;;9.82;3.10;;;11.10;99.90;;;;;;4985148;28;20602;-86
2022/01/01 08:35:36;;;;;;;7.72;3.10;;;11.10;99.90;;;;;;4968829;28;20047;-92
2022/01/01 08:38:04;;;;;;;9.98;2.85;;;11.20;99.90;;;;;;4985286;28;20062;-93
2022/01/01 08:40:30;;;;;;;8.77;3.28;;;11.20;99.90;;;;;;4934108;29;20542;-93
2022/01/01 08:42:57;;;;;;;6.50;2.75;;;11.20;99.90;;;;;;4948936;29;20043;-93
2022/01/01 08:45:22;;;;;;;6.70;3.22;;;11.20;99.90;;;;;;4965510;29;20042;-94
2022/01/01 08:47:48;;;;;;;13.52;4.05;;;11.20;99.90;;;;;;4949522;29;20043;-92
2022/01/01 08:50:14;;;;;;;11.45;4.60;;;11.30;99.90;;;;;;4965210;28;20134;-93
2022/01/01 08:52:40;;;;;;;12.68;5.80;;;11.40;99.90;;;;;;4965167;29;20063;-93
2022/01/01 08:55:07;;;;;;;14.40;7.13;;;11.40;99.90;;;;;;4965044;29;20047;-92
2022/01/01 08:57:33;;;;;;;13.63;5.63;;;11.50;99.90;;;;;;4949174;29;20177;-89
2022/01/01 09:00:01;;;;;;;13.18;4.63;;;11.60;99.90;;;;;;4965225;29;20170;-93
2022/01/01 09:02:27;;;;;;;9.05;3.40;;;11.70;99.90;;;;;;4948898;29;20051;-93
2022/01/01 09:04:52;;;;;;;8.25;2.40;;;11.70;99.90;;;;;;4965298;29;20071;-91
2022/01/01 09:07:18;;;;;;;8.02;2.95;;;11.80;99.90;;;;;;4975006;28;20445;-93
2022/01/01 09:09:44;;;;;;;9.38;3.80;;;11.90;99.90;;;;;;5044056;28;20119;-93
2022/01/01 09:12:11;;;;;;;11.70;4.57;;;11.90;99.90;;;;;;5043674;28;20465;-90
2022/01/01 09:14:38;;;;;;;12.30;4.65;;;12.00;99.90;;;;;;5044355;28;20405;-93
2022/01/01 09:17:06;;;;;;;12.57;4.47;;;12.00;99.90;;;;;;5044553;28;20057;-92
2022/01/01 09:19:32;;;;;;;11.43;3.90;;;12.00;99.90;;;;;;5027541;28;20036;-92
2022/01/01 09:21:57;;;;;;;10.13;4.10;;;12.00;99.90;;;;;;5027868;28;20036;-92
2022/01/01 09:24:23;;;;;;;14.40;3.42;;;12.10;99.90;;;;;;5044454;28;20037;-91
2022/01/01 09:26:49;;;;;;;12.02;3.70;;;12.10;99.90;;;;;;5044039;28;20030;-92
2022/01/01 09:29:14;;;;;;;11.32;3.33;;;12.10;99.90;;;;;;5043667;28;20068;-90
2022/01/01 09:31:42;;;;;;;8.80;2.97;;;12.20;99.90;;;;;;5060498;28;20025;-90
2022/01/01 09:34:08;;;;;;;7.45;3.05;;;12.20;99.90;;;;;;5044138;28;20074;-88
2022/01/01 09:36:34;;;;;;;9.00;2.88;;;12.20;99.90;;;;;;5044265;28;20029;-92
2022/01/01 09:39:00;;;;;;;6.53;3.08;;;12.20;99.90;;;;;;5043361;28;20036;-93
2022/01/01 09:41:26;;;;;;;11.98;3.35;;;12.20;99.90;;;;;;5046720;28;20032;-87
2022/01/01 09:43:54;;;;;;;6.43;3.25;;;12.30;99.90;;;;;;5047256;28;20044;-92
2022/01/01 09:46:20;;;;;;;11.13;4.15;;;12.30;99.90;;;;;;5063689;28;20056;-90
2022/01/01 09:48:45;;;;;;;8.98;3.42;;;12.30;99.90;;;;;;5047418;28;20045;-92
2022/01/01 09:51:12;;;;;;;9.95;4.22;;;12.40;99.90;;;;;;5046913;28;20432;-91
2022/01/01 09:53:37;;;;;;;7.97;2.90;;;12.40;99.90;;;;;;5064069;28;20039;-93
2022/01/01 09:56:04;;;;;;;4.35;1.45;;;12.40;99.90;;;;;;5046949;28;20111;-90
2022/01/01 09:58:34;;;;;;;11.77;2.05;;;12.40;99.90;;;;;;5063590;28;20108;-87
2022/01/01 10:01:02;;;;;;;6.97;1.55;;;12.40;99.90;;;;;;5047112;28;20059;-85
2022/01/01 10:03:35;;;;;;;9.45;1.88;;;12.40;99.90;;;;;;5050249;28;20043;-94
2022/01/01 10:06:08;;;;;;;5.15;2.30;;;12.40;99.90;;;;;;5050744;28;20021;-94
2022/01/01 10:08:36;;;;;;;8.02;1.90;;;12.50;99.90;;;;;;5050975;28;20105;-93
2022/01/01 10:11:02;;;;;;;4.95;1.73;;;12.50;99.90;;;;;;5050368;28;20041;-92
2022/01/01 10:13:34;;;;;;;4.82;1.85;;;12.50;99.90;;;;;;5051034;28;20040;-93
2022/01/01 10:16:03;;;;;;;6.57;2.17;;;12.50;99.90;;;;;;5051076;28;20480;-94
2022/01/01 10:18:31;;;;;;;9.05;1.92;;;12.50;99.90;;;;;;5067665;28;20037;-92
2022/01/01 10:21:09;;;;;;;7.32;2.28;;;12.50;99.90;;;;;;5050635;28;20041;-92
2022/01/01 10:23:36;;;;;;;7.72;2.10;;;12.60;99.90;;;;;;5050642;28;20184;-94
2022/01/01 10:29:31;;;;;;;6.82;2.05;;;12.60;99.90;;;;;;5066794;28;20118;-92
2022/01/01 10:32:03;;;;;;;8.45;2.63;;;12.70;99.90;;;;;;5050327;28;20029;-92
2022/01/01 10:34:31;;;;;;;6.18;2.90;;;12.70;99.90;;;;;;5050538;28;20049;-93
2022/01/01 10:36:57;;;;;;;7.07;2.65;;;12.80;99.90;;;;;;5050323;28;20036;-92
2022/01/01 10:39:23;;;;;;;6.43;1.90;;;12.80;99.90;;;;;;5050586;28;20040;-89
2022/01/01 10:41:55;;;;;;;6.18;1.52;;;12.80;99.90;;;;;;5066379;28;20036;-88
2022/01/01 10:44:30;;;;;;;4.05;1.17;;;12.90;99.90;;;;;;5066652;28;20033;-88
2022/01/01 10:46:57;;;;;;;6.60;1.10;;;12.90;99.90;;;;;;5066718;28;20067;-90
2022/01/01 10:50:13;;;;;;;7.40;1.85;;;12.90;99.90;;;;;;5049922;28;20048;-91
2022/01/01 10:52:24;;;;;;;3.20;1.20;;;12.90;99.90;;;;;;5065358;28;20063;-89
2022/01/01 10:54:55;;;;;;;3.92;1.00;;;13.00;99.90;;;;;;5066838;28;20033;-91
2022/01/01 10:57:24;;;;;;;4.32;1.40;;;13.00;99.90;;;;;;5066146;28;20037;-91
2022/01/01 10:59:50;;;;;;;6.03;1.77;;;13.00;99.90;;;;;;5066268;28;20029;-92
2022/01/01 11:02:22;;;;;;;7.20;2.03;;;13.10;99.90;;;;;;5066185;28;20036;-90
2022/01/01 11:04:48;;;;;;;7.18;1.65;;;13.00;99.90;;;;;;5066481;28;20040;-90
2022/01/01 11:07:24;;;;;;;4.43;1.50;;;13.10;99.90;;;;;;5049608;28;20105;-89
2022/01/01 11:09:50;;;;;;;5.50;1.17;;;13.10;99.90;;;;;;5049563;28;20500;-90
2022/01/01 11:12:20;;;;;;;6.18;1.85;;;13.10;99.90;;;;;;5065982;28;20033;-91
2022/01/01 11:14:46;;;;;;;6.82;1.42;;;13.10;99.90;;;;;;5049351;28;20033;-90
2022/01/01 11:17:12;;;;;;;5.82;1.75;;;13.10;99.90;;;;;;5066093;28;20084;-92
2022/01/01 11:19:37;;;;;;;4.50;1.77;;;13.10;99.90;;;;;;5065968;28;20025;-89
2022/01/01 11:22:03;;;;;;;4.97;1.48;;;13.20;99.90;;;;;;5065069;28;20044;-89
2022/01/01 11:24:31;;;;;;;6.53;1.75;;;13.10;99.90;;;;;;5049312;28;20039;-89
2022/01/01 11:26:57;;;;;;;8.43;2.03;;;13.20;99.90;;;;;;5049222;28;20032;-92
2022/01/01 11:29:23;;;;;;;4.13;1.52;;;13.20;99.90;;;;;;5065725;28;20051;-89
2022/01/01 11:31:53;;;;;;;7.88;2.22;;;13.30;99.90;;;;;;5048749;28;20080;-86
2022/01/01 11:34:19;;;;;;;5.47;1.92;;;13.30;99.90;;;;;;5048810;28;20032;-92
2022/01/01 11:36:46;;;;;;;7.07;2.55;;;13.30;99.90;;;;;;5065053;28;20120;-88
2022/01/01 11:39:13;;;;;;;6.38;1.65;;;13.40;99.90;;;;;;5049212;28;20120;-90
2022/01/01 11:41:44;;;;;;;4.82;1.95;;;13.40;99.90;;;;;;5048857;28;20087;-92
2022/01/01 11:44:52;;;;;;;3.45;1.85;;;13.30;99.90;;;;;;5029516;28;20429;-91
2022/01/01 11:47:20;;;;;;;6.10;1.60;;;13.30;99.90;;;;;;4988846;28;20049;-91
2022/01/01 11:49:47;;;;;;;4.53;1.50;;;13.40;99.90;;;;;;4988860;28;20054;-91
2022/01/01 11:52:12;;;;;;;5.03;2.38;;;13.30;99.90;;;;;;4988735;28;20034;-88
2022/01/01 11:54:40;;;;;;;3.78;1.83;;;13.40;99.90;;;;;;4988680;28;20052;-87
2022/01/01 11:57:10;;;;;;;6.18;2.05;;;13.40;99.90;;;;;;4988657;28;20114;-89
2022/01/01 11:59:38;;;;;;;4.88;1.45;;;13.40;99.90;;;;;;5004922;28;20034;-88
2022/01/01 12:02:05;;;;;;;3.47;1.80;;;13.40;99.90;;;;;;5004688;28;20049;-91
2022/01/01 12:04:43;;;;;;;2.97;1.40;;;13.40;99.90;;;;;;4988568;28;20078;-90
2022/01/01 12:07:12;;;;;;;4.05;1.65;;;13.40;99.90;;;;;;4988643;28;20045;-89
2022/01/01 12:10:03;;;;;;;6.13;1.98;;;13.40;99.90;;;;;;4988513;28;20049;-90
2022/01/01 12:12:44;;;;;;;4.72;1.58;;;13.40;99.90;;;;;;5004613;28;20038;-88
2022/01/01 12:15:24;;;;;;;3.85;2.08;;;13.50;99.90;;;;;;5004943;28;20041;-91
2022/01/01 12:17:54;;;;;;;5.20;2.33;;;13.50;99.90;;;;;;5004809;28;20034;-90
2022/01/01 12:20:33;;;;;;;3.75;1.65;;;13.50;99.90;;;;;;5011159;28;20033;-88
2022/01/01 12:23:03;;;;;;;4.70;2.25;;;13.60;99.90;;;;;;5028370;28;20053;-90
2022/01/01 12:25:31;;;;;;;5.53;3.28;;;13.50;99.90;;;;;;5027786;28;20088;-89
2022/01/01 12:28:18;;;;;;;6.88;3.08;;;13.50;99.90;;;;;;5011714;28;20032;-92
2022/01/01 12:31:07;;;;;;;7.63;3.03;;;13.50;99.90;;;;;;4986183;28;20051;-93
2022/01/01 12:33:39;;;;;;;7.25;3.05;;;13.50;99.90;;;;;;4984844;28;20262;-93
2022/01/01 12:36:19;;;;;;;5.15;1.88;;;13.60;99.90;;;;;;4985050;28;20047;-91
2022/01/01 12:38:53;;;;;;;6.07;3.10;;;13.60;99.90;;;;;;4989410;28;20034;-87
2022/01/01 12:41:35;;;;;;;6.80;2.08;;;13.70;99.90;;;;;;5004137;28;20039;-91
2022/01/01 12:44:07;;;;;;;7.53;2.83;;;13.80;99.90;;;;;;4987871;28;20042;-93